Time;durP1;ratioP1;P1;durP2;ratioP2;P2;SDS_P1;SDS_P2;PMS_P1;PMS_P2;Temp;Humidity;BMP_temperature;BMP_pressure;BME280_temperature;BME280_humidity;BME280_pressure;Samples;Min_cycle;Max_cycle;Signal;HPM_P1;HPM_P2
2023/05/07 00:01:23;;;;;;;2.70;1.70;;;;;;;6.77;100.00;99726.15;109571;1251;61423;-64
2023/05/07 00:03:50;;;;;;;2.50;1.90;;;;;;;6.77;100.00;99723.00;109576;1251;59056;-65
2023/05/07 00:06:17;;;;;;;2.30;1.40;;;;;;;6.76;100.00;99726.81;109535;1251;73182;-67
2023/05/07 00:08:44;;;;;;;2.30;1.70;;;;;;;6.77;100.00;99714.20;109434;1251;69739;-65
2023/05/07 00:11:11;;;;;;;3.10;1.80;;;;;;;6.76;100.00;99708.67;109475;1251;71397;-64
2023/05/07 00:13:38;;;;;;;2.20;1.70;;;;;;;6.75;100.00;99711.54;109546;1253;60411;-65
2023/05/07 00:16:05;;;;;;;3.00;1.80;;;;;;;6.72;100.00;99705.08;109561;1251;62077;-64
2023/05/07 00:18:31;;;;;;;1.90;1.50;;;;;;;6.69;100.00;99707.81;109542;1251;74327;-64
2023/05/07 00:20:58;;;;;;;4.90;2.10;;;;;;;6.66;100.00;99700.71;109615;1251;68671;-65
2023/05/07 00:23:25;;;;;;;2.10;1.60;;;;;;;6.61;100.00;99699.58;109505;1251;72172;-64
2023/05/07 00:25:51;;;;;;;2.30;1.90;;;;;;;6.58;100.00;99700.77;109493;1253;61135;-64
2023/05/07 00:28:18;;;;;;;2.50;1.60;;;;;;;6.55;100.00;99707.61;109587;1251;60252;-64
2023/05/07 00:30:45;;;;;;;2.80;1.60;;;;;;;6.54;100.00;99701.11;109660;1251;76830;-64
2023/05/07 00:33:12;;;;;;;2.00;1.70;;;;;;;6.55;100.00;99696.65;109473;1252;67164;-64
2023/05/07 00:35:38;;;;;;;2.80;1.50;;;;;;;6.56;100.00;99692.13;109501;1251;73594;-64
2023/05/07 00:38:05;;;;;;;2.10;1.50;;;;;;;6.58;100.00;99691.45;109499;1251;58941;-65
2023/05/07 00:40:32;;;;;;;3.70;1.80;;;;;;;6.58;100.00;99690.36;109579;1251;62353;-63
2023/05/07 00:42:59;;;;;;;1.70;1.60;;;;;;;6.57;100.00;99689.29;109368;1251;76541;-64
2023/05/07 00:45:27;;;;;;;1.80;1.40;;;;;;;6.57;100.00;99695.40;109533;1251;70016;-63
2023/05/07 00:47:57;;;;;;;1.60;1.50;;;;;;;6.57;100.00;99691.30;109557;1253;74750;-63
2023/05/07 00:50:25;;;;;;;1.80;1.40;;;;;;;6.58;100.00;99688.97;109520;1251;64287;-64
2023/05/07 00:52:52;;;;;;;2.80;1.50;;;;;;;6.58;100.00;99691.42;109554;1251;60865;-64
2023/05/07 00:55:19;;;;;;;2.40;1.60;;;;;;;6.59;100.00;99696.47;109467;1253;76682;-64
2023/05/07 00:57:46;;;;;;;2.00;1.50;;;;;;;6.59;100.00;99709.83;109455;1251;69274;-66
2023/05/07 01:00:14;;;;;;;1.50;1.40;;;;;;;6.59;100.00;99717.39;109445;1251;74030;-65
2023/05/07 01:02:41;;;;;;;2.10;1.50;;;;;;;6.57;100.00;99711.27;109471;1251;62111;-64
2023/05/07 01:05:12;;;;;;;2.10;1.80;;;;;;;6.53;100.00;99706.05;109534;1251;61637;-65
2023/05/07 01:07:40;;;;;;;1.50;1.30;;;;;;;6.48;100.00;99700.60;109534;1251;76393;-64
2023/05/07 01:10:07;;;;;;;2.20;1.60;;;;;;;6.44;100.00;99710.15;109500;1251;70243;-65
2023/05/07 01:12:34;;;;;;;2.30;1.80;;;;;;;6.42;100.00;99703.73;109421;1252;74339;-64
2023/05/07 01:15:02;;;;;;;1.70;1.60;;;;;;;6.38;100.00;99701.94;109462;1251;62359;-66
2023/05/07 01:17:28;;;;;;;2.20;1.70;;;;;;;6.34;100.00;99698.27;109607;1251;61463;-63
2023/05/07 01:19:55;;;;;;;2.50;2.10;;;;;;;6.30;100.00;99695.76;109484;1251;76678;-64
2023/05/07 01:22:36;;;;;;;3.50;1.90;;;;;;;6.26;100.00;99698.45;109486;1251;68294;-65
2023/05/07 01:25:04;;;;;;;2.20;1.70;;;;;;;6.21;100.00;99704.33;109635;1251;73626;-64
2023/05/07 01:27:31;;;;;;;2.00;1.60;;;;;;;6.19;100.00;99716.48;109402;1251;62325;-65
2023/05/07 01:29:57;;;;;;;3.80;1.80;;;;;;;6.15;100.00;99710.35;109477;1251;61350;-64
2023/05/07 01:32:38;;;;;;;2.10;1.80;;;;;;;6.10;100.00;99702.16;109471;1251;73316;-64
2023/05/07 01:35:05;;;;;;;2.30;2.10;;;;;;;6.07;100.00;99690.66;109450;1251;70002;-65
2023/05/07 01:37:32;;;;;;;2.50;1.70;;;;;;;6.04;100.00;99694.08;109485;1251;74778;-65
2023/05/07 01:39:59;;;;;;;2.50;1.90;;;;;;;6.02;100.00;99689.88;109458;1251;62943;-65
2023/05/07 01:42:26;;;;;;;2.10;1.70;;;;;;;5.99;100.00;99689.42;109553;1251;62634;-64
2023/05/07 01:44:53;;;;;;;2.10;1.80;;;;;;;5.95;100.00;99688.35;109511;1251;75999;-63
2023/05/07 01:47:19;;;;;;;2.60;1.70;;;;;;;5.90;100.00;99693.26;109390;1254;69054;-63
2023/05/07 01:49:46;;;;;;;3.40;2.00;;;;;;;5.80;100.00;99690.73;109518;1251;73504;-63
2023/05/07 01:52:13;;;;;;;2.70;1.90;;;;;;;5.72;100.00;99683.03;109390;1254;61316;-63
2023/05/07 01:54:40;;;;;;;1.60;1.40;;;;;;;5.68;100.00;99676.17;109312;1256;60897;-64
2023/05/07 01:57:06;;;;;;;2.30;1.80;;;;;;;5.66;100.00;99667.59;109595;1251;75062;-64
2023/05/07 01:59:33;;;;;;;2.00;1.70;;;;;;;5.64;100.00;99669.86;109525;1250;67650;-63
2023/05/07 02:02:00;;;;;;;2.70;1.80;;;;;;;5.63;100.00;99664.48;109414;1251;71722;-65
2023/05/07 02:04:27;;;;;;;2.10;1.60;;;;;;;5.63;100.00;99663.74;109547;1253;61911;-64
2023/05/07 02:06:54;;;;;;;1.70;1.60;;;;;;;5.63;100.00;99669.00;109422;1251;61246;-64
2023/05/07 02:09:22;;;;;;;2.20;1.70;;;;;;;5.64;100.00;99674.73;109423;1251;75469;-64
2023/05/07 02:11:50;;;;;;;3.20;1.70;;;;;;;5.65;100.00;99671.67;109577;1251;70006;-64
2023/05/07 02:14:19;;;;;;;2.10;1.90;;;;;;;5.68;100.00;99671.25;109421;1252;72839;-64
2023/05/07 02:16:46;;;;;;;2.20;1.60;;;;;;;5.69;100.00;99662.31;109566;1251;61820;-64
2023/05/07 02:19:14;;;;;;;2.80;1.80;;;;;;;5.70;100.00;99666.68;109484;1251;59479;-63
2023/05/07 02:21:41;;;;;;;2.10;1.60;;;;;;;5.70;100.00;99663.13;109491;1251;74385;-63
2023/05/07 02:24:08;;;;;;;2.00;1.50;;;;;;;5.70;100.00;99656.80;109565;1251;67787;-64
2023/05/07 02:26:35;;;;;;;3.00;1.90;;;;;;;5.70;100.00;99656.96;109603;1251;72917;-63
2023/05/07 02:29:02;;;;;;;3.40;1.70;;;;;;;5.70;100.00;99654.16;109413;1254;59896;-64
2023/05/07 02:31:29;;;;;;;2.60;1.80;;;;;;;5.69;100.00;99645.42;109453;1251;61800;-64
2023/05/07 02:33:55;;;;;;;2.70;2.20;;;;;;;5.70;100.00;99648.04;109511;1251;74026;-64
2023/05/07 02:36:22;;;;;;;4.10;1.70;;;;;;;5.69;100.00;99650.73;109490;1251;67593;-64
2023/05/07 02:39:09;;;;;;;2.00;1.80;;;;;;;5.66;100.00;99647.48;109551;1251;72713;-64
2023/05/07 02:41:35;;;;;;;2.60;1.90;;;;;;;5.65;100.00;99656.86;109441;1251;62448;-64
2023/05/07 02:44:02;;;;;;;3.10;2.00;;;;;;;5.63;100.00;99661.09;109344;1251;60278;-64
2023/05/07 02:46:29;;;;;;;2.10;1.40;;;;;;;5.62;100.00;99663.11;109467;1251;75589;-64
2023/05/07 02:49:00;;;;;;;2.30;1.80;;;;;;;5.62;100.00;99661.16;109557;1251;69315;-64
2023/05/07 02:51:27;;;;;;;2.40;1.70;;;;;;;5.63;100.00;99660.35;109503;1251;72542;-64
2023/05/07 02:53:55;;;;;;;1.60;1.40;;;;;;;5.65;100.00;99658.48;109389;1251;62364;-65
2023/05/07 02:56:22;;;;;;;3.30;1.70;;;;;;;5.68;100.00;99660.87;109566;1251;63076;-64
2023/05/07 02:58:49;;;;;;;3.10;2.00;;;;;;;5.76;100.00;99656.09;109578;1254;76623;-65
2023/05/07 03:01:16;;;;;;;2.20;2.00;;;;;;;5.80;100.00;99653.64;109543;1251;70162;-64
2023/05/07 03:04:04;;;;;;;1.60;1.50;;;;;;;5.80;100.00;99659.56;109480;1254;71190;-65
2023/05/07 03:06:31;;;;;;;2.50;2.00;;;;;;;5.81;100.00;99654.19;109533;1253;61933;-64
2023/05/07 03:08:58;;;;;;;2.70;1.60;;;;;;;5.81;100.00;99651.38;109609;1251;62591;-64
2023/05/07 03:11:25;;;;;;;2.80;1.70;;;;;;;5.83;100.00;99657.70;109580;1251;74597;-64
2023/05/07 03:13:51;;;;;;;3.30;2.00;;;;;;;5.84;100.00;99660.95;109614;1251;70190;-64
2023/05/07 03:16:18;;;;;;;2.80;2.00;;;;;;;5.87;100.00;99666.76;109553;1251;73220;-64
2023/05/07 03:18:45;;;;;;;2.00;1.70;;;;;;;5.89;100.00;99671.29;109611;1251;62179;-64
2023/05/07 03:21:12;;;;;;;2.40;1.80;;;;;;;5.91;100.00;99676.71;109585;1251;62712;-64
2023/05/07 03:23:39;;;;;;;2.30;1.90;;;;;;;5.94;100.00;99676.84;109427;1251;76011;-63
2023/05/07 03:26:07;;;;;;;1.60;1.40;;;;;;;5.96;100.00;99678.09;109549;1253;69071;-64
2023/05/07 03:28:33;;;;;;;1.80;1.50;;;;;;;5.99;100.00;99682.04;109473;1251;75728;-64
2023/05/07 03:31:02;;;;;;;2.50;1.60;;;;;;;6.01;100.00;99683.21;109297;1254;61307;-64
2023/05/07 03:33:29;;;;;;;3.10;1.40;;;;;;;6.04;100.00;99680.52;109566;1251;61056;-64
2023/05/07 03:35:56;;;;;;;2.30;1.60;;;;;;;6.05;100.00;99680.55;109490;1251;75082;-64
2023/05/07 03:38:23;;;;;;;2.30;2.00;;;;;;;6.06;100.00;99672.02;109503;1251;67633;-64
2023/05/07 03:40:50;;;;;;;2.90;1.70;;;;;;;6.09;100.00;99684.95;109580;1251;74950;-65
2023/05/07 03:43:17;;;;;;;2.90;1.90;;;;;;;6.12;100.00;99685.26;109325;1251;61914;-64
2023/05/07 03:45:48;;;;;;;3.80;2.20;;;;;;;6.13;100.00;99683.38;109560;1251;61490;-64
2023/05/07 03:48:19;;;;;;;6.10;3.50;;;;;;;6.16;100.00;99678.70;109463;1251;76062;-64
2023/05/07 03:50:47;;;;;;;5.90;3.60;;;;;;;6.18;100.00;99675.53;109458;1251;67317;-64
2023/05/07 03:53:15;;;;;;;8.30;3.80;;;;;;;6.19;100.00;99670.00;109467;1251;73612;-64
2023/05/07 03:55:42;;;;;;;11.00;5.40;;;;;;;6.19;100.00;99677.54;109497;1253;63176;-65
2023/05/07 03:58:08;;;;;;;11.60;5.50;;;;;;;6.18;100.00;99675.64;109573;1251;60412;-65
2023/05/07 04:00:38;;;;;;;12.00;6.30;;;;;;;6.20;100.00;99675.40;109592;1251;73390;-65
2023/05/07 04:03:11;;;;;;;10.70;5.70;;;;;;;6.21;100.00;99674.74;109424;1252;66958;-64
2023/05/07 04:05:38;;;;;;;7.20;4.70;;;;;;;6.20;100.00;99676.88;109580;1251;74917;-63
2023/05/07 04:08:05;;;;;;;4.70;3.40;;;;;;;6.21;100.00;99686.70;109498;1253;60675;-64
2023/05/07 04:10:38;;;;;;;6.60;2.80;;;;;;;6.21;100.00;99689.52;109479;1253;60917;-64
2023/05/07 04:13:08;;;;;;;3.40;2.70;;;;;;;6.20;100.00;99686.07;109420;1251;74248;-65
2023/05/07 04:15:35;;;;;;;3.10;1.80;;;;;;;6.20;100.00;99686.77;109448;1253;67399;-64
2023/05/07 04:18:03;;;;;;;2.20;1.50;;;;;;;6.21;100.00;99685.42;109586;1251;73698;-64
2023/05/07 04:20:30;;;;;;;3.60;2.00;;;;;;;6.23;100.00;99692.36;109477;1251;62130;-64
2023/05/07 04:23:00;;;;;;;4.00;2.00;;;;;;;6.24;100.00;99697.34;109441;1251;58938;-64
2023/05/07 04:25:27;;;;;;;1.90;1.70;;;;;;;6.26;100.00;99701.98;109515;1251;75333;-64
2023/05/07 04:27:58;;;;;;;2.70;1.90;;;;;;;6.27;100.00;99702.77;109468;1251;68927;-64
2023/05/07 04:30:26;;;;;;;2.90;1.70;;;;;;;6.28;100.00;99704.96;109508;1251;74762;-64
2023/05/07 04:32:53;;;;;;;2.60;1.70;;;;;;;6.30;100.00;99705.85;109511;1253;63112;-64
2023/05/07 04:35:20;;;;;;;2.30;1.60;;;;;;;6.32;100.00;99708.83;109477;1251;62526;-64
2023/05/07 04:37:47;;;;;;;1.70;1.60;;;;;;;6.34;100.00;99708.30;109442;1251;74895;-65
2023/05/07 04:40:14;;;;;;;1.70;1.60;;;;;;;6.35;100.00;99706.91;109542;1251;68529;-65
2023/05/07 04:42:41;;;;;;;3.30;1.40;;;;;;;6.35;100.00;99709.73;109461;1258;73198;-64
2023/05/07 04:45:10;;;;;;;2.30;2.10;;;;;;;6.35;100.00;99710.45;109535;1251;63080;-64
2023/05/07 04:47:37;;;;;;;2.10;2.00;;;;;;;6.36;100.00;99706.73;109402;1252;61952;-64
2023/05/07 04:50:06;;;;;;;1.60;1.50;;;;;;;6.38;100.00;99713.18;109463;1254;74849;-63
2023/05/07 04:52:33;;;;;;;2.80;1.80;;;;;;;6.39;100.00;99714.17;109473;1251;70073;-64
2023/05/07 04:55:00;;;;;;;3.00;1.70;;;;;;;6.40;100.00;99717.99;109548;1251;71446;-64
2023/05/07 04:57:29;;;;;;;2.60;2.00;;;;;;;6.40;100.00;99718.66;109361;1256;63075;-64
2023/05/07 04:59:56;;;;;;;1.70;1.60;;;;;;;6.39;100.00;99712.40;109609;1251;59404;-64
2023/05/07 05:02:23;;;;;;;2.40;1.80;;;;;;;6.37;100.00;99715.55;109361;1253;72695;-64
2023/05/07 05:04:50;;;;;;;2.80;1.80;;;;;;;6.36;100.00;99718.48;109562;1253;70247;-63
2023/05/07 05:07:17;;;;;;;2.90;1.90;;;;;;;6.35;100.00;99720.13;109414;1251;73072;-65
2023/05/07 05:09:44;;;;;;;1.80;1.70;;;;;;;6.36;100.00;99721.16;109412;1257;61637;-64
2023/05/07 05:12:11;;;;;;;2.00;1.80;;;;;;;6.36;100.00;99725.21;109376;1251;62130;-65
2023/05/07 05:14:38;;;;;;;2.50;1.80;;;;;;;6.35;100.00;99730.00;109479;1251;75968;-65
2023/05/07 05:17:05;;;;;;;3.10;1.90;;;;;;;6.34;100.00;99727.27;109521;1251;68686;-65
2023/05/07 05:19:33;;;;;;;2.30;2.10;;;;;;;6.36;100.00;99730.45;109485;1251;73928;-64
2023/05/07 05:22:00;;;;;;;3.00;1.80;;;;;;;6.37;100.00;99736.76;109475;1254;63321;-64
2023/05/07 05:24:28;;;;;;;6.10;2.00;;;;;;;6.34;100.00;99729.92;109377;1253;61384;-64
2023/05/07 05:26:55;;;;;;;2.80;2.00;;;;;;;6.34;100.00;99731.36;109547;1251;75506;-64
2023/05/07 05:29:22;;;;;;;2.60;1.70;;;;;;;6.35;100.00;99733.06;109318;1251;69628;-64
2023/05/07 05:31:49;;;;;;;2.80;1.40;;;;;;;6.38;100.00;99735.09;109524;1253;70810;-65
2023/05/07 05:34:19;;;;;;;2.40;1.50;;;;;;;6.40;100.00;99736.50;109350;1253;63258;-65
2023/05/07 05:36:46;;;;;;;1.80;1.60;;;;;;;6.43;100.00;99734.79;109549;1252;59029;-64
2023/05/07 05:39:13;;;;;;;1.60;1.50;;;;;;;6.45;100.00;99731.77;109511;1253;76679;-64
2023/05/07 05:41:40;;;;;;;4.60;2.30;;;;;;;6.48;100.00;99733.21;109485;1251;66568;-65
2023/05/07 05:44:07;;;;;;;2.40;1.90;;;;;;;6.51;100.00;99724.36;109378;1251;74924;-62
2023/05/07 05:46:34;;;;;;;3.10;1.80;;;;;;;6.54;100.00;99720.91;109495;1254;61026;-62
2023/05/07 05:49:03;;;;;;;1.60;1.50;;;;;;;6.57;100.00;99719.33;109597;1252;60913;-63
2023/05/07 05:51:30;;;;;;;2.30;1.80;;;;;;;6.60;100.00;99716.13;109415;1251;75273;-64
2023/05/07 05:53:57;;;;;;;2.80;1.80;;;;;;;6.60;100.00;99713.07;109565;1251;70176;-64
2023/05/07 05:56:24;;;;;;;4.40;1.80;;;;;;;6.61;100.00;99709.48;109564;1251;74812;-65
2023/05/07 05:58:51;;;;;;;6.70;2.30;;;;;;;6.61;100.00;99711.21;109453;1254;61671;-64
2023/05/07 06:01:18;;;;;;;3.30;2.40;;;;;;;6.62;100.00;99710.83;109571;1251;61964;-64
2023/05/07 06:03:46;;;;;;;2.30;2.10;;;;;;;6.63;100.00;99714.95;109573;1253;76011;-64
2023/05/07 06:06:14;;;;;;;2.00;1.80;;;;;;;6.64;100.00;99719.61;109561;1251;68927;-64
2023/05/07 06:08:41;;;;;;;4.20;1.90;;;;;;;6.63;100.00;99723.03;109428;1256;74553;-65
2023/05/07 06:11:09;;;;;;;2.40;2.10;;;;;;;6.63;100.00;99726.23;109369;1254;61915;-64
2023/05/07 06:13:36;;;;;;;4.10;2.50;;;;;;;6.63;100.00;99728.65;109378;1251;62602;-66
2023/05/07 06:16:03;;;;;;;4.10;1.70;;;;;;;6.64;100.00;99725.73;109553;1255;73675;-65
2023/05/07 06:18:31;;;;;;;2.20;2.00;;;;;;;6.66;100.00;99723.65;109495;1251;70184;-65
2023/05/07 06:20:58;;;;;;;2.70;1.90;;;;;;;6.67;100.00;99727.56;109401;1251;71387;-67
2023/05/07 06:23:27;;;;;;;2.90;2.30;;;;;;;6.69;100.00;99721.06;109441;1251;62976;-67
2023/05/07 06:25:54;;;;;;;3.40;1.80;;;;;;;6.73;100.00;99718.47;109372;1252;59290;-66
2023/05/07 06:28:23;;;;;;;3.20;1.80;;;;;;;6.78;100.00;99717.46;109414;1251;75715;-67
2023/05/07 06:30:51;;;;;;;3.30;3.00;;;;;;;6.81;100.00;99718.38;109367;1253;69532;-66
2023/05/07 06:33:19;;;;;;;5.50;2.30;;;;;;;6.83;100.00;99709.33;109620;1251;73191;-68
2023/05/07 06:35:46;;;;;;;2.70;2.30;;;;;;;6.85;100.00;99710.95;109627;1251;61952;-66
2023/05/07 06:38:13;;;;;;;2.40;2.20;;;;;;;6.85;100.00;99708.30;109480;1251;59272;-68
2023/05/07 06:40:40;;;;;;;3.30;1.80;;;;;;;6.87;100.00;99702.04;109555;1251;76746;-68
2023/05/07 06:43:06;;;;;;;2.50;2.00;;;;;;;6.87;100.00;99706.21;109415;1251;68142;-66
2023/05/07 06:45:41;;;;;;;3.80;2.10;;;;;;;6.86;100.00;99708.01;109523;1251;74800;-65
2023/05/07 06:48:08;;;;;;;3.20;1.80;;;;;;;6.85;100.00;99712.36;109326;1253;59418;-66
2023/05/07 06:50:43;;;;;;;2.80;2.40;;;;;;;6.86;100.00;99713.86;109389;1251;62296;-70
2023/05/07 06:53:10;;;;;;;3.70;2.20;;;;;;;7.09;100.00;99712.05;109552;1251;76013;-66
2023/05/07 06:55:38;;;;;;;3.10;2.40;;;;;;;7.20;100.00;99713.30;109434;1257;70434;-71
2023/05/07 06:58:05;;;;;;;2.70;2.30;;;;;;;7.21;100.00;99710.91;109390;1254;73176;-66
2023/05/07 07:00:32;;;;;;;3.40;2.40;;;;;;;7.20;100.00;99710.36;109387;1251;62804;-69
2023/05/07 07:03:00;;;;;;;3.50;2.30;;;;;;;7.17;100.00;99704.25;109582;1251;62328;-69
2023/05/07 07:05:27;;;;;;;3.30;2.20;;;;;;;7.12;100.00;99700.11;109408;1253;76127;-67
2023/05/07 07:07:55;;;;;;;4.70;2.90;;;;;;;7.09;100.00;99702.35;109495;1254;67847;-70
2023/05/07 07:10:22;;;;;;;4.00;3.60;;;;;;;7.08;100.00;99708.59;109582;1253;72976;-72
2023/05/07 07:12:49;;;;;;;2.90;2.60;;;;;;;7.09;100.00;99706.09;109346;1254;60675;-70
2023/05/07 07:15:16;;;;;;;3.70;2.60;;;;;;;7.07;100.00;99712.05;109447;1255;62580;-69
2023/05/07 07:17:44;;;;;;;3.20;2.40;;;;;;;7.03;100.00;99713.86;109525;1254;74682;-68
2023/05/07 07:20:11;;;;;;;4.50;3.10;;;;;;;7.01;100.00;99715.67;109472;1252;68062;-68
2023/05/07 07:22:39;;;;;;;3.10;2.70;;;;;;;6.99;100.00;99715.06;109241;1253;73713;-70
2023/05/07 07:25:07;;;;;;;3.00;1.90;;;;;;;6.99;100.00;99721.00;109325;1254;63193;-70
2023/05/07 07:27:33;;;;;;;2.50;2.20;;;;;;;6.97;100.00;99717.43;109311;1252;62507;-68
2023/05/07 07:30:00;;;;;;;3.90;2.30;;;;;;;6.98;100.00;99713.98;109389;1254;76179;-68
2023/05/07 07:32:29;;;;;;;3.00;2.10;;;;;;;6.98;100.00;99716.64;109188;1253;68052;-71
2023/05/07 07:34:56;;;;;;;2.30;2.10;;;;;;;6.97;100.00;99720.41;109345;1254;71862;-69
2023/05/07 07:37:25;;;;;;;2.90;2.60;;;;;;;6.97;100.00;99721.47;109260;1252;64021;-70
2023/05/07 07:39:52;;;;;;;3.30;2.60;;;;;;;6.99;100.00;99730.14;109125;1253;61499;-68
2023/05/07 07:42:20;;;;;;;2.60;2.40;;;;;;;7.00;100.00;99722.95;109208;1252;74795;-68
2023/05/07 07:44:48;;;;;;;2.50;2.10;;;;;;;7.00;100.00;99730.33;109527;1254;69353;-68
2023/05/07 07:47:15;;;;;;;5.80;2.10;;;;;;;7.02;100.00;99730.33;109348;1253;73348;-67
2023/05/07 07:49:42;;;;;;;3.60;2.60;;;;;;;7.05;100.00;99731.52;109277;1254;64085;-67
2023/05/07 07:52:09;;;;;;;3.10;2.00;;;;;;;7.07;100.00;99732.55;109307;1254;59497;-68
2023/05/07 07:54:36;;;;;;;3.10;2.20;;;;;;;7.10;100.00;99733.30;109304;1252;76905;-68
2023/05/07 07:57:03;;;;;;;5.50;2.00;;;;;;;7.12;100.00;99734.88;109454;1254;69138;-70
2023/05/07 07:59:31;;;;;;;4.50;2.40;;;;;;;7.13;100.00;99733.20;109375;1251;73877;-69
2023/05/07 08:01:58;;;;;;;2.60;2.00;;;;;;;7.12;100.00;99736.63;109383;1253;62637;-70
2023/05/07 08:04:26;;;;;;;3.10;2.30;;;;;;;7.13;100.00;99734.26;109513;1253;60343;-68
2023/05/07 08:06:54;;;;;;;3.30;2.40;;;;;;;7.13;100.00;99732.31;109365;1253;75542;-69
2023/05/07 08:09:21;;;;;;;3.00;1.80;;;;;;;7.14;100.00;99741.03;109527;1254;70190;-71
2023/05/07 08:11:48;;;;;;;2.70;1.80;;;;;;;7.13;100.00;99738.86;109391;1254;73891;-70
2023/05/07 08:14:15;;;;;;;2.80;1.90;;;;;;;7.12;100.00;99737.90;109526;1253;63202;-69
2023/05/07 08:16:44;;;;;;;4.80;2.10;;;;;;;7.11;100.00;99736.91;109303;1253;60920;-68
2023/05/07 08:19:11;;;;;;;2.30;2.10;;;;;;;7.11;100.00;99734.98;109546;1253;76205;-67
2023/05/07 08:21:41;;;;;;;4.30;2.00;;;;;;;7.12;100.00;99734.40;109374;1254;69225;-68
2023/05/07 08:24:08;;;;;;;3.50;1.80;;;;;;;7.10;100.00;99733.51;109303;1254;72514;-68
2023/05/07 08:26:36;;;;;;;2.90;2.10;;;;;;;7.10;100.00;99736.85;109332;1254;63083;-68
2023/05/07 08:29:02;;;;;;;2.80;2.10;;;;;;;7.13;100.00;99735.17;109550;1253;61135;-67
2023/05/07 08:31:29;;;;;;;2.50;2.30;;;;;;;7.16;100.00;99737.34;109348;1253;75962;-68
2023/05/07 08:33:57;;;;;;;3.00;1.70;;;;;;;7.17;100.00;99738.28;109538;1253;68681;-66
2023/05/07 08:36:25;;;;;;;3.00;2.10;;;;;;;7.19;100.00;99736.73;109562;1253;74857;-67
2023/05/07 08:38:52;;;;;;;10.60;2.30;;;;;;;7.21;100.00;99732.92;109429;1254;59511;-69
2023/05/07 08:41:20;;;;;;;2.30;2.10;;;;;;;7.25;100.00;99731.75;109393;1254;60572;-69
2023/05/07 08:43:49;;;;;;;4.60;2.40;;;;;;;7.27;100.00;99742.67;109390;1252;77062;-67
2023/05/07 08:46:17;;;;;;;2.40;2.20;;;;;;;7.28;100.00;99745.77;109376;1254;68059;-71
2023/05/07 08:48:45;;;;;;;4.00;2.10;;;;;;;7.29;100.00;99742.21;109227;1254;73986;-66
2023/05/07 08:51:16;;;;;;;3.50;2.20;;;;;;;7.32;100.00;99751.13;109235;1254;62206;-68
2023/05/07 08:53:43;;;;;;;2.60;1.90;;;;;;;7.33;100.00;99747.89;109561;1254;59013;-68
2023/05/07 08:56:12;;;;;;;3.80;2.00;;;;;;;7.35;100.00;99754.41;109298;1253;75673;-67
2023/05/07 08:58:39;;;;;;;3.40;1.70;;;;;;;7.37;100.00;99755.21;109355;1254;70321;-67
2023/05/07 09:01:12;;;;;;;2.80;2.00;;;;;;;7.41;100.00;99748.31;109365;1253;74938;-69
2023/05/07 09:03:40;;;;;;;2.10;1.90;;;;;;;7.46;100.00;99750.36;109405;1253;63345;-64
2023/05/07 09:06:07;;;;;;;2.10;1.80;;;;;;;7.48;100.00;99750.22;109601;1251;62283;-68
2023/05/07 09:08:34;;;;;;;3.00;1.90;;;;;;;7.48;100.00;99755.48;109435;1254;74206;-67
2023/05/07 09:11:02;;;;;;;2.80;2.30;;;;;;;7.48;100.00;99757.50;109552;1251;67290;-68
2023/05/07 09:13:29;;;;;;;2.90;2.10;;;;;;;7.48;100.00;99755.09;109595;1251;72934;-69
2023/05/07 09:15:56;;;;;;;2.20;1.90;;;;;;;7.48;100.00;99759.14;109276;1251;234515;-69
2023/05/07 09:18:24;;;;;;;4.80;2.10;;;;;;;7.48;100.00;99769.59;109394;1254;59910;-68
2023/05/07 09:20:51;;;;;;;2.50;2.00;;;;;;;7.46;100.00;99767.11;109403;1251;73198;-67
2023/05/07 09:23:20;;;;;;;2.30;2.10;;;;;;;7.45;100.00;99768.63;109485;1251;69265;-71
2023/05/07 09:25:46;;;;;;;8.70;2.70;;;;;;;7.44;100.00;99767.64;109272;1251;73258;-69
2023/05/07 09:28:24;;;;;;;1.90;1.60;;;;;;;7.44;100.00;99775.95;109611;1251;60485;-68
2023/05/07 09:30:51;;;;;;;2.50;1.60;;;;;;;7.45;100.00;99771.63;109500;1251;61479;-69
2023/05/07 09:33:18;;;;;;;2.10;1.90;;;;;;;7.45;100.00;99768.60;109625;1251;73488;-66
2023/05/07 09:35:51;;;;;;;2.50;1.90;;;;;;;7.47;100.00;99771.65;109351;1251;66849;-68
2023/05/07 09:38:17;;;;;;;3.20;2.00;;;;;;;7.49;100.00;99771.08;109561;1254;73584;-68
2023/05/07 09:40:44;;;;;;;1.90;1.80;;;;;;;7.50;100.00;99770.13;109387;1251;60218;-69
2023/05/07 09:43:13;;;;;;;2.30;2.00;;;;;;;7.53;100.00;99775.53;109572;1254;60254;-68
2023/05/07 09:45:44;;;;;;;5.00;2.10;;;;;;;7.57;100.00;99770.15;109356;1257;76708;-68
2023/05/07 09:48:11;;;;;;;2.50;1.80;;;;;;;7.62;100.00;99772.89;109189;1251;66697;-67
2023/05/07 09:50:48;;;;;;;3.50;1.70;;;;;;;7.68;100.00;99777.08;109250;1254;72585;-71
2023/05/07 09:53:16;;;;;;;1.90;1.80;;;;;;;7.75;100.00;99785.25;109240;1251;61606;-67
2023/05/07 09:55:43;;;;;;;2.20;1.80;;;;;;;7.79;100.00;99782.39;109437;1251;62007;-69
2023/05/07 09:58:11;;;;;;;3.00;2.00;;;;;;;7.82;100.00;99789.65;109326;1254;76457;-70
2023/05/07 10:00:38;;;;;;;1.90;1.70;;;;;;;7.85;100.00;99778.62;109507;1251;69869;-68
2023/05/07 10:03:06;;;;;;;2.50;2.00;;;;;;;7.87;100.00;99782.17;109421;1254;71073;-73
2023/05/07 10:05:40;;;;;;;4.00;1.90;;;;;;;7.87;100.00;99787.60;109426;1253;59665;-74
2023/05/07 10:08:07;;;;;;;1.90;1.70;;;;;;;7.86;100.00;99787.67;109440;1251;62687;-70
2023/05/07 10:10:34;;;;;;;2.30;2.10;;;;;;;7.86;100.00;99788.91;109494;1254;75985;-75
2023/05/07 10:13:01;;;;;;;3.20;2.30;;;;;;;7.86;100.00;99795.60;109599;1251;69904;-72
2023/05/07 10:15:31;;;;;;;2.30;2.10;;;;;;;7.86;100.00;99795.23;109478;1253;73235;-71
2023/05/07 10:17:58;;;;;;;2.40;2.00;;;;;;;7.94;100.00;99795.54;109406;1251;60450;-70
2023/05/07 10:20:25;;;;;;;2.90;1.80;;;;;;;7.99;100.00;99795.46;109399;1251;59858;-72
2023/05/07 10:22:53;;;;;;;3.90;2.00;;;;;;;7.98;100.00;99795.29;109413;1254;76594;-69
2023/05/07 10:25:25;;;;;;;2.60;1.80;;;;;;;8.00;100.00;99793.37;109408;1254;70311;-68
2023/05/07 10:27:53;;;;;;;4.00;1.90;;;;;;;8.01;100.00;99789.04;109290;1254;73438;-73
2023/05/07 10:30:46;;;;;;;2.20;1.60;;;;;;;8.01;100.00;99797.52;109250;1255;61551;-70
2023/05/07 10:33:13;;;;;;;2.00;1.80;;;;;;;8.00;100.00;99792.27;109423;1251;61081;-72
2023/05/07 10:35:43;;;;;;;4.10;1.50;;;;;;;8.00;100.00;99796.88;109297;1260;76448;-69
2023/05/07 10:38:10;;;;;;;1.60;1.50;;;;;;;7.99;100.00;99791.05;109335;1254;70189;-71
2023/05/07 10:40:38;;;;;;;4.10;3.10;;;;;;;7.97;100.00;99793.80;109372;1251;75072;-69
2023/05/07 10:43:05;;;;;;;4.10;3.60;;;;;;;8.00;100.00;99785.98;109388;1251;60862;-68
2023/05/07 10:46:14;;;;;;;3.40;2.50;;;;;;;8.04;100.00;99788.58;109291;1251;60913;-68
2023/05/07 10:49:06;;;;;;;4.20;2.50;;;;;;;8.06;100.00;99793.48;109625;1251;76668;-69
2023/05/07 10:52:17;;;;;;;2.90;2.60;;;;;;;8.10;100.00;99794.19;109621;1251;69420;-68
2023/05/07 10:55:18;;;;;;;2.60;2.20;;;;;;;8.14;100.00;99787.77;109498;1251;75193;-68
2023/05/07 10:57:51;;;;;;;2.90;1.90;;;;;;;8.18;100.00;99793.55;109431;1251;62128;-68
2023/05/07 11:00:29;;;;;;;3.80;2.40;;;;;;;8.24;100.00;99799.25;109383;1260;59496;-67
2023/05/07 11:03:01;;;;;;;8.10;5.70;;;;;;;8.25;100.00;99803.38;109441;1251;77047;-69
2023/05/07 11:05:33;;;;;;;5.40;4.40;;;;;;;8.23;100.00;99801.98;109517;1253;70293;-69
2023/05/07 11:08:23;;;;;;;3.80;3.00;;;;;;;8.18;100.00;99805.24;109438;1251;74650;-68
2023/05/07 11:11:03;;;;;;;3.40;2.60;;;;;;;8.16;100.00;99810.71;109437;1251;59739;-69
2023/05/07 11:13:44;;;;;;;4.80;3.80;;;;;;;8.16;100.00;99809.48;109520;1251;61111;-68
2023/05/07 11:16:49;;;;;;;4.70;4.00;;;;;;;8.15;100.00;99818.27;109367;1251;76916;-68
2023/05/07 11:19:49;;;;;;;8.80;5.10;;;;;;;8.13;100.00;99823.08;109356;1251;69738;-67
2023/05/07 11:22:32;;;;;;;3.10;2.50;;;;;;;8.14;100.00;99820.84;109412;1254;74837;-69
2023/05/07 11:25:07;;;;;;;3.10;1.90;;;;;;;8.21;100.00;99823.85;109338;1251;61700;-70
2023/05/07 11:27:34;;;;;;;3.60;1.80;;;;;;;8.28;100.00;99829.58;109475;1251;61745;-69
2023/05/07 11:30:01;;;;;;;4.90;2.20;;;;;;;8.32;100.00;99834.44;109503;1251;76617;-68
2023/05/07 11:32:30;;;;;;;2.20;1.80;;;;;;;8.32;100.00;99836.47;109453;1251;68648;-68